createdAt,value
2023-04-10T00:00:07.533Z,74.90
2023-04-10T00:02:36.653Z,75.30
2023-04-10T00:05:04.706Z,75.50
2023-04-10T00:07:32.444Z,74.40
2023-04-10T00:10:00.606Z,73.90
2023-04-10T00:12:28.189Z,75.40
2023-04-10T00:14:55.957Z,74.80
2023-04-10T00:17:24.002Z,74.00
2023-04-10T00:19:51.686Z,75.00
2023-04-10T00:22:21.452Z,74.30
2023-04-10T00:24:49.488Z,74.90
2023-04-10T00:27:17.519Z,74.10
2023-04-10T00:29:47.078Z,74.30
2023-04-10T00:37:14.324Z,75.20
2023-04-10T00:39:49.377Z,75.50
2023-04-10T00:42:20.550Z,75.60
2023-04-10T00:45:12.457Z,75.90
2023-04-10T00:47:40.991Z,76.10
2023-04-10T00:50:10.065Z,76.20
2023-04-10T00:52:37.733Z,76.20
2023-04-10T00:55:06.129Z,76.10
2023-04-10T00:57:33.916Z,76.40
2023-04-10T01:11:26.291Z,76.30
2023-04-10T01:14:01.935Z,76.30
2023-04-10T01:17:23.503Z,76.00
2023-04-10T01:20:22.264Z,76.60
2023-04-10T01:23:22.035Z,77.30
2023-04-10T01:26:03.876Z,77.60
2023-04-10T01:28:47.440Z,77.60
2023-04-10T01:31:28.209Z,77.90
2023-04-10T01:34:06.404Z,78.00
2023-04-10T01:36:46.443Z,78.30
2023-04-10T01:39:17.567Z,78.60
2023-04-10T01:41:48.399Z,79.00
2023-04-10T01:44:23.198Z,78.80
2023-04-10T01:46:53.258Z,78.60
2023-04-10T01:49:23.828Z,78.40
2023-04-10T01:52:02.220Z,79.00
2023-04-10T01:54:36.370Z,79.00
2023-04-10T01:57:05.521Z,78.40
2023-04-10T01:59:51.035Z,78.60
2023-04-10T02:02:19.599Z,78.80
2023-04-10T02:04:51.960Z,78.80
2023-04-10T02:07:49.587Z,79.40
2023-04-10T02:10:29.066Z,79.00
2023-04-10T02:13:07.689Z,79.60
2023-04-10T02:15:37.834Z,79.70
2023-04-10T02:18:06.803Z,80.00
2023-04-10T02:20:38.284Z,79.40
2023-04-10T02:23:07.229Z,79.40
2023-04-10T02:25:38.636Z,80.00
2023-04-10T02:28:08.086Z,79.80
2023-04-10T02:30:36.372Z,79.70
2023-04-10T02:33:05.172Z,79.80
2023-04-10T02:35:34.642Z,80.00
2023-04-10T02:38:04.969Z,79.70
2023-04-10T02:40:37.665Z,80.30
2023-04-10T02:43:12.941Z,79.90
2023-04-10T02:45:41.977Z,80.10
2023-04-10T02:48:12.816Z,80.40
2023-04-10T02:50:46.449Z,80.00
2023-04-10T02:53:16.878Z,80.00
2023-04-10T02:55:45.883Z,80.20
2023-04-10T02:58:15.146Z,79.90
2023-04-10T03:00:49.450Z,79.60
2023-04-10T03:03:23.841Z,80.30
2023-04-10T03:05:55.180Z,79.80
2023-04-10T03:08:31.242Z,79.60
2023-04-10T03:10:59.757Z,79.50
2023-04-10T03:13:28.034Z,79.80
2023-04-10T03:15:56.249Z,79.70
2023-04-10T03:18:24.221Z,80.20
2023-04-10T03:21:25.177Z,80.10
2023-04-10T03:23:53.531Z,80.40
2023-04-10T03:26:25.482Z,80.40
2023-04-10T03:28:55.571Z,80.40
2023-04-10T03:31:24.090Z,80.80
2023-04-10T03:33:57.832Z,80.50
2023-04-10T03:36:27.583Z,80.40
2023-04-10T03:38:56.985Z,81.30
2023-04-10T03:41:25.813Z,81.40
2023-04-10T03:43:55.990Z,80.70
2023-04-10T03:46:24.763Z,81.10
2023-04-10T03:48:54.296Z,81.20
2023-04-10T03:51:24.790Z,81.30
2023-04-10T03:53:53.746Z,81.50
2023-04-10T03:56:22.824Z,81.00
2023-04-10T03:58:51.017Z,82.10
2023-04-10T04:01:19.572Z,82.80
2023-04-10T04:04:02.465Z,81.80
2023-04-10T04:06:49.575Z,81.50
2023-04-10T04:09:36.065Z,81.90
2023-04-10T04:12:24.767Z,81.60
2023-04-10T04:15:03.378Z,81.80
2023-04-10T04:17:46.482Z,81.90
2023-04-10T04:20:46.894Z,82.80
2023-04-10T04:23:40.043Z,82.20
2023-04-10T04:26:30.892Z,81.80
2023-04-10T04:29:14.982Z,82.00
2023-04-10T04:31:49.697Z,82.50
2023-04-10T04:34:42.333Z,82.60
2023-04-10T04:37:28.302Z,82.30
2023-04-10T04:40:18.702Z,82.70
2023-04-10T04:43:22.684Z,82.40
2023-04-10T04:46:00.893Z,82.50
2023-04-10T04:48:55.215Z,82.80
2023-04-10T04:51:43.247Z,82.60
2023-04-10T04:54:30.212Z,83.20
2023-04-10T04:57:17.501Z,83.00
2023-04-10T05:00:05.128Z,83.20
2023-04-10T05:02:56.234Z,83.60
2023-04-10T05:10:22.615Z,83.40
2023-04-10T05:13:13.711Z,83.60
2023-04-10T05:16:04.313Z,83.90
2023-04-10T05:18:53.095Z,83.40
2023-04-10T05:21:40.761Z,83.80
2023-04-10T05:24:27.462Z,83.80
2023-04-10T05:27:13.804Z,83.80
2023-04-10T05:29:53.388Z,84.20
2023-04-10T05:32:46.163Z,84.00
2023-04-10T05:35:33.799Z,84.10
2023-04-10T05:38:12.689Z,84.00
2023-04-10T05:41:01.620Z,83.80
2023-04-10T05:43:58.668Z,83.50
2023-04-10T05:46:35.123Z,84.30
2023-04-10T05:49:26.120Z,82.80
2023-04-10T05:52:14.653Z,83.00
2023-04-10T05:55:01.491Z,82.60
2023-04-10T05:58:20.497Z,82.50
2023-04-10T06:01:15.325Z,82.70
2023-04-10T06:03:49.319Z,82.10
2023-04-10T06:06:19.348Z,81.80
2023-04-10T06:08:47.251Z,81.50
2023-04-10T06:11:15.627Z,81.30
2023-04-10T06:13:47.772Z,79.80
2023-04-10T06:16:16.617Z,81.10
2023-04-10T06:18:48.252Z,79.80
2023-04-10T06:21:16.033Z,78.90
2023-04-10T06:23:48.239Z,78.80
2023-04-10T06:27:07.197Z,78.70
2023-04-10T06:29:36.160Z,79.00
2023-04-10T06:32:04.731Z,77.60
2023-04-10T06:34:36.918Z,77.20
2023-04-10T06:37:08.374Z,77.10
2023-04-10T06:39:39.537Z,76.40
2023-04-10T06:42:08.308Z,75.70
2023-04-10T06:44:57.619Z,75.80
2023-04-10T06:47:26.246Z,74.10
2023-04-10T06:49:54.836Z,74.50
2023-04-10T06:52:28.289Z,72.90
2023-04-10T06:55:00.393Z,72.60
2023-04-10T06:57:32.716Z,72.30
2023-04-10T07:00:03.539Z,72.10
2023-04-10T07:02:33.121Z,72.20
2023-04-10T07:05:02.798Z,70.90
2023-04-10T07:07:37.718Z,71.20
2023-04-10T07:10:13.697Z,69.90
2023-04-10T07:12:47.644Z,69.00
2023-04-10T07:16:11.593Z,67.00
2023-04-10T07:19:14.907Z,66.50
2023-04-10T08:01:06.469Z,51.40
2023-04-10T08:03:42.171Z,50.70
2023-04-10T08:06:10.237Z,50.20
2023-04-10T08:08:39.090Z,48.70
2023-04-10T08:11:31.106Z,48.00
2023-04-10T08:14:04.131Z,50.20
2023-04-10T08:16:36.205Z,47.50
2023-04-10T08:19:03.752Z,46.00
2023-04-10T08:21:34.636Z,46.20
2023-04-10T08:24:03.841Z,45.40
2023-04-10T08:26:32.412Z,44.50
2023-04-10T08:29:00.823Z,43.70
2023-04-10T08:31:29.533Z,43.60
2023-04-10T08:33:57.636Z,42.70
2023-04-10T08:36:27.319Z,42.20
2023-04-10T08:38:54.836Z,42.10
2023-04-10T08:41:23.230Z,41.10
2023-04-10T08:43:51.633Z,41.00
2023-04-10T08:46:20.108Z,41.20
2023-04-10T08:48:48.196Z,41.00
2023-04-10T08:51:25.825Z,40.40
2023-04-10T08:54:02.139Z,40.80
2023-04-10T08:56:32.627Z,40.50
2023-04-10T08:59:02.508Z,39.80
2023-04-10T09:01:30.168Z,40.10
2023-04-10T09:03:59.104Z,38.90
2023-04-10T09:06:27.373Z,38.30
2023-04-10T09:08:54.835Z,38.00
2023-04-10T09:11:22.254Z,37.90
2023-04-10T09:13:49.725Z,37.90
2023-04-10T09:16:21.239Z,38.70
2023-04-10T09:18:50.771Z,37.40
2023-04-10T09:21:21.843Z,37.10
2023-04-10T09:23:59.471Z,36.40
2023-04-10T09:26:29.259Z,37.70
2023-04-10T09:29:05.006Z,35.70
2023-04-10T09:31:38.473Z,36.70
2023-04-10T09:34:22.276Z,36.50
2023-04-10T09:37:01.218Z,37.40
2023-04-10T09:39:43.743Z,37.40
2023-04-10T09:42:14.917Z,37.80
2023-04-10T09:44:42.795Z,36.60
2023-04-10T09:47:23.012Z,37.70
2023-04-10T09:49:55.400Z,38.70
2023-04-10T09:52:38.137Z,40.00
2023-04-10T09:55:09.691Z,39.90
2023-04-10T09:57:37.038Z,40.20
2023-04-10T10:00:07.003Z,39.60
2023-04-10T10:02:39.204Z,41.00
2023-04-10T10:05:07.848Z,41.00
2023-04-10T10:07:39.181Z,41.00
2023-04-10T10:10:08.791Z,41.50
2023-04-10T10:12:50.377Z,40.60
2023-04-10T10:15:34.533Z,41.20
2023-04-10T10:24:26.314Z,42.10
2023-04-10T10:26:55.948Z,44.20
2023-04-10T10:29:24.837Z,42.30
2023-04-10T10:31:53.969Z,42.40
2023-04-10T10:34:26.848Z,42.90
2023-04-10T10:36:54.674Z,43.20
2023-04-10T10:49:13.925Z,43.20
2023-04-10T10:51:53.692Z,44.30
2023-04-10T11:13:24.966Z,42.40
2023-04-10T11:15:52.637Z,43.40
2023-04-10T15:17:13.139Z,32.80
2023-04-10T15:19:40.885Z,33.60
2023-04-10T15:22:08.532Z,33.70
2023-04-10T15:24:47.048Z,33.70
2023-04-10T15:27:21.244Z,33.90
2023-04-10T15:29:49.112Z,34.00
2023-04-10T15:32:17.118Z,33.50
2023-04-10T15:34:44.922Z,33.90
2023-04-10T15:37:12.542Z,33.90
2023-04-10T15:39:40.102Z,33.70
2023-04-10T15:42:08.688Z,33.80
2023-04-10T15:44:38.664Z,33.50
2023-04-10T15:47:06.603Z,34.10
2023-04-10T15:49:38.199Z,33.60
2023-04-10T15:52:06.974Z,34.20
2023-04-10T15:54:35.360Z,35.40
2023-04-10T15:57:03.611Z,35.00
2023-04-10T15:59:32.343Z,35.60
2023-04-10T16:02:00.470Z,34.70
2023-04-10T16:04:28.907Z,34.20
2023-04-10T16:06:56.749Z,35.00
2023-04-10T16:09:27.265Z,34.80
2023-04-10T16:11:56.306Z,34.80
2023-04-10T16:14:24.122Z,33.90
2023-04-10T16:16:51.586Z,33.50
2023-04-10T16:19:19.277Z,33.40
2023-04-10T16:21:46.843Z,32.90
2023-04-10T16:24:14.360Z,33.70
2023-04-10T16:26:42.033Z,33.20
2023-04-10T16:29:09.600Z,33.90
2023-04-10T16:31:37.127Z,34.80
2023-04-10T16:34:07.407Z,33.90
2023-04-10T16:36:35.325Z,34.20
2023-04-10T16:39:02.974Z,34.80
2023-04-10T16:41:30.632Z,33.90
2023-04-10T16:43:58.183Z,34.20
2023-04-10T16:46:25.713Z,34.40
2023-04-10T16:48:55.732Z,34.40
2023-04-10T16:51:24.526Z,33.90
2023-04-10T16:53:52.409Z,34.90
2023-04-10T16:56:19.865Z,35.00
2023-04-10T16:58:47.539Z,36.10
2023-04-10T17:01:18.169Z,36.80
2023-04-10T17:03:48.149Z,37.40
2023-04-10T17:06:16.493Z,37.80
2023-04-10T17:08:44.764Z,37.60
2023-04-10T17:11:13.033Z,38.80
2023-04-10T17:13:41.427Z,38.90
2023-04-10T17:16:09.755Z,38.10
2023-04-10T17:18:38.484Z,38.80
2023-04-10T17:21:13.000Z,39.30
2023-04-10T17:23:41.019Z,40.00
2023-04-10T17:26:13.571Z,38.90
2023-04-10T17:28:46.127Z,39.40
2023-04-10T17:31:15.188Z,38.90
2023-04-10T17:33:43.533Z,39.30
2023-04-10T17:36:12.838Z,39.40
2023-04-10T17:38:41.711Z,39.80
2023-04-10T17:41:10.184Z,39.90
2023-04-10T17:43:37.695Z,39.80
2023-04-10T17:46:05.577Z,39.90
2023-04-10T17:48:34.410Z,40.30
2023-04-10T17:51:06.902Z,40.40
2023-04-10T17:53:34.561Z,39.90
2023-04-10T17:56:02.994Z,39.00
2023-04-10T17:58:31.056Z,40.20
2023-04-10T18:01:01.803Z,39.80
2023-04-10T18:03:29.426Z,38.80
2023-04-10T18:05:56.908Z,39.40
2023-04-10T18:08:30.340Z,39.50
2023-04-10T18:11:00.096Z,39.60
2023-04-10T18:13:27.659Z,40.10
2023-04-10T18:15:55.429Z,39.70
2023-04-10T18:18:25.361Z,39.90
2023-04-10T18:20:55.838Z,39.60
2023-04-10T18:23:28.075Z,39.50
2023-04-10T18:25:57.085Z,39.80
2023-04-10T18:38:03.129Z,40.60
2023-04-10T18:44:38.160Z,41.10
2023-04-10T18:47:05.605Z,41.50
2023-04-10T18:49:33.225Z,41.50
2023-04-10T18:52:00.954Z,41.70
2023-04-10T18:54:29.689Z,42.20
2023-04-10T18:56:57.175Z,42.10
2023-04-10T18:59:24.707Z,42.20
2023-04-10T19:01:52.187Z,41.70
2023-04-10T19:04:19.783Z,42.20
2023-04-10T19:06:47.440Z,42.40
2023-04-10T19:09:15.503Z,42.50
2023-04-10T19:11:42.946Z,42.50
2023-04-10T19:14:12.442Z,42.60
2023-04-10T19:16:41.027Z,42.40
2023-04-10T19:19:08.573Z,42.50
2023-04-10T19:21:37.106Z,43.50
2023-04-10T19:24:04.787Z,42.90
2023-04-10T19:26:32.271Z,43.00
2023-04-10T19:29:00.834Z,43.40
2023-04-10T19:31:29.680Z,43.20
2023-04-10T19:33:58.325Z,43.80
2023-04-10T19:36:27.900Z,43.40
2023-04-10T19:38:57.338Z,43.90
2023-04-10T19:41:26.096Z,43.90
2023-04-10T19:43:54.139Z,43.90
2023-04-10T19:46:22.137Z,44.40
2023-04-10T20:09:24.221Z,45.60
2023-04-10T20:11:52.075Z,48.70
2023-04-10T20:14:20.879Z,49.30
2023-04-10T20:16:49.510Z,52.40
2023-04-10T20:19:17.183Z,53.20
2023-04-10T20:21:44.911Z,53.50
2023-04-10T20:24:12.395Z,52.50
2023-04-10T20:26:40.331Z,53.70
2023-04-10T20:29:08.074Z,52.70
2023-04-10T20:31:35.826Z,53.50
2023-04-10T20:34:03.808Z,54.20
2023-04-10T20:36:32.389Z,54.40
2023-04-10T20:39:04.584Z,54.50
2023-04-10T20:41:35.574Z,55.90
2023-04-10T20:44:04.115Z,55.30
2023-04-10T20:46:32.064Z,56.20
2023-04-10T20:48:59.908Z,55.30
2023-04-10T20:51:28.666Z,55.40
2023-04-10T20:54:00.702Z,56.50
2023-04-10T20:56:36.749Z,55.90
2023-04-10T20:59:08.026Z,56.00
2023-04-10T21:01:35.784Z,56.00
2023-04-10T21:04:03.395Z,56.20
2023-04-10T21:06:33.187Z,56.30
2023-04-10T21:09:00.801Z,56.60
2023-04-10T21:11:28.296Z,56.10
2023-04-10T21:13:55.708Z,56.30
2023-04-10T21:16:23.400Z,55.90
2023-04-10T21:18:53.338Z,55.90
2023-04-10T21:21:21.361Z,55.10
2023-04-10T21:23:48.816Z,55.60
2023-04-10T21:26:17.391Z,55.00
2023-04-10T21:28:44.804Z,55.10
2023-04-10T21:31:12.289Z,54.80
2023-04-10T21:33:41.012Z,55.20
2023-04-10T21:36:09.352Z,54.80
2023-04-10T21:38:36.981Z,54.00
2023-04-10T21:41:04.616Z,54.20
2023-04-10T21:43:33.136Z,54.50
2023-04-10T21:46:02.780Z,54.40
2023-04-10T21:48:30.857Z,54.70
2023-04-10T21:50:58.378Z,54.80
2023-04-10T21:53:25.869Z,55.00
2023-04-10T21:55:53.405Z,55.70
2023-04-10T21:58:20.783Z,55.60
2023-04-10T22:00:49.938Z,55.50
2023-04-10T22:03:19.871Z,55.90
2023-04-10T22:06:02.194Z,55.80
2023-04-10T22:08:49.767Z,56.10
2023-04-10T22:11:17.231Z,56.30
2023-04-10T22:13:44.727Z,57.00
2023-04-10T22:16:12.215Z,57.40
2023-04-10T22:18:39.818Z,58.00
2023-04-10T22:21:07.433Z,59.30
2023-04-10T22:23:35.538Z,59.90
2023-04-10T22:26:03.099Z,60.20
2023-04-10T22:28:30.680Z,62.00
2023-04-10T22:30:58.322Z,63.10
2023-04-10T22:33:26.544Z,64.70
2023-04-10T22:35:53.976Z,64.60
2023-04-10T22:38:21.894Z,67.90
2023-04-10T22:40:49.370Z,68.40
2023-04-10T22:43:22.126Z,69.40
2023-04-10T22:45:49.709Z,70.70
2023-04-10T22:48:17.561Z,71.60
2023-04-10T22:50:45.081Z,72.40
2023-04-10T22:53:12.584Z,73.40
2023-04-10T22:55:40.759Z,74.40
2023-04-10T22:58:08.278Z,74.20
2023-04-10T23:00:35.877Z,74.50
2023-04-10T23:03:03.646Z,74.90
2023-04-10T23:05:33.054Z,75.20
2023-04-10T23:08:00.633Z,76.80
2023-04-10T23:10:28.072Z,76.60
2023-04-10T23:12:55.692Z,77.50
2023-04-10T23:15:23.258Z,77.70
2023-04-10T23:17:51.105Z,77.60
2023-04-10T23:20:18.739Z,78.90
2023-04-10T23:22:46.556Z,79.10
2023-04-10T23:25:15.728Z,79.20
2023-04-10T23:27:43.194Z,79.60
2023-04-10T23:30:11.326Z,79.90
2023-04-10T23:32:39.131Z,80.40
2023-04-10T23:35:07.028Z,81.50
2023-04-10T23:37:35.337Z,81.60
2023-04-10T23:40:04.023Z,81.80
2023-04-10T23:42:31.517Z,82.50
2023-04-10T23:44:58.907Z,82.10
2023-04-10T23:47:26.435Z,82.70
2023-04-10T23:49:54.786Z,80.40
2023-04-10T23:52:22.324Z,81.10
2023-04-10T23:54:49.791Z,80.30
2023-04-10T23:57:17.910Z,80.80
2023-04-10T23:59:46.843Z,79.20
